Time;durP1;ratioP1;P1;durP2;ratioP2;P2;SDS_P1;SDS_P2;PMS_P1;PMS_P2;Temp;Humidity;BMP_temperature;BMP_pressure;BME280_temperature;BME280_humidity;BME280_pressure;Samples;Min_cycle;Max_cycle;Signal;HPM_P1;HPM_P2
2023/12/30 14:42:52;;;;;;;17.70;3.90;;;8.50;99.90;;;;;;5142734;27;1283781;-75
2023/12/30 14:45:19;;;;;;;17.60;4.30;;;8.50;99.90;;;;;;5161428;27;20050;-76
2023/12/30 14:47:45;;;;;;;19.58;5.20;;;8.40;99.90;;;;;;5159318;27;20062;-76
2023/12/30 14:50:11;;;;;;;18.10;4.53;;;8.30;99.90;;;;;;5151295;27;20053;-76
2023/12/30 14:52:37;;;;;;;18.70;4.10;;;8.30;99.90;;;;;;5160319;27;20046;-77
2023/12/30 14:55:08;;;;;;;18.63;3.70;;;8.10;99.90;;;;;;5130394;27;20038;-76
2023/12/30 14:57:40;;;;;;;16.10;4.22;;;8.10;99.90;;;;;;5161471;27;20133;-76
2023/12/30 15:00:11;;;;;;;17.75;4.00;;;8.00;99.90;;;;;;5135344;27;20049;-76
2023/12/30 15:02:37;;;;;;;16.98;3.80;;;8.00;99.90;;;;;;5146939;27;20049;-76
2023/12/30 15:05:03;;;;;;;15.35;4.38;;;7.90;99.90;;;;;;5155767;27;20040;-76
2023/12/30 15:07:29;;;;;;;40.38;13.95;;;7.90;99.90;;;;;;5149470;27;20039;-76
2023/12/30 15:09:55;;;;;;;23.27;11.90;;;7.90;99.90;;;;;;5157286;27;20056;-77
2023/12/30 15:12:24;;;;;;;35.40;19.85;;;7.90;99.90;;;;;;5174562;27;20125;-76
2023/12/30 15:14:50;;;;;;;24.95;7.53;;;7.80;99.90;;;;;;5109946;27;20046;-75
2023/12/30 15:17:17;;;;;;;20.45;6.80;;;7.90;99.90;;;;;;5156156;27;20050;-76
2023/12/30 15:19:44;;;;;;;24.60;5.72;;;7.70;99.90;;;;;;5151824;27;20396;-75
2023/12/30 15:22:10;;;;;;;22.02;5.57;;;7.80;99.90;;;;;;5161283;27;20030;-76
2023/12/30 15:24:36;;;;;;;28.75;10.25;;;7.70;99.90;;;;;;5162384;27;20042;-76
2023/12/30 15:27:02;;;;;;;29.08;8.88;;;7.70;99.90;;;;;;5144958;27;20043;-77
2023/12/30 15:29:28;;;;;;;19.10;5.43;;;7.70;99.90;;;;;;5140835;27;20050;-76
2023/12/30 15:31:54;;;;;;;16.85;5.15;;;7.70;99.90;;;;;;5170846;27;20043;-76
2023/12/30 15:34:19;;;;;;;20.08;4.70;;;7.80;99.90;;;;;;5166955;27;20066;-75
2023/12/30 15:36:45;;;;;;;18.75;5.20;;;7.70;99.90;;;;;;5142459;27;20034;-76
2023/12/30 15:39:11;;;;;;;19.55;5.78;;;7.70;99.90;;;;;;5167092;27;20080;-75
2023/12/30 15:41:37;;;;;;;26.13;6.93;;;7.70;99.90;;;;;;5148087;27;20059;-76
2023/12/30 15:44:04;;;;;;;19.65;6.15;;;7.70;99.90;;;;;;5163206;27;20124;-77
2023/12/30 15:46:30;;;;;;;27.85;8.18;;;7.70;99.90;;;;;;5140530;27;20035;-76
2023/12/30 15:48:55;;;;;;;32.35;9.10;;;7.70;99.90;;;;;;5163238;27;20046;-76
2023/12/30 15:51:22;;;;;;;23.27;7.40;;;7.80;99.90;;;;;;5130744;27;20046;-76
2023/12/30 15:53:50;;;;;;;23.67;8.43;;;7.70;99.90;;;;;;5154463;27;20072;-75
2023/12/30 15:56:15;;;;;;;;;;;7.70;99.90;;;;;;5144691;27;20051;-75
2023/12/30 15:58:56;;;;;;;21.98;8.88;;;7.70;99.90;;;;;;5129382;27;19930;-76
2023/12/30 16:01:41;;;;;;;32.22;10.55;;;7.80;99.90;;;;;;5134283;27;20047;-75
2023/12/30 16:04:16;;;;;;;26.60;10.75;;;8.40;99.90;;;;;;5128065;27;20042;-76
2023/12/30 16:06:45;;;;;;;28.23;10.70;;;7.60;99.90;;;;;;5143803;27;20065;-75
2023/12/30 16:09:14;;;;;;;27.00;10.57;;;7.80;99.90;;;;;;5165522;27;20066;-74
2023/12/30 16:11:39;;;;;;;34.42;12.48;;;8.20;99.90;;;;;;5134729;27;20035;-75
2023/12/30 16:14:05;;;;;;;29.10;12.90;;;7.70;99.90;;;;;;5129641;27;20046;-76
2023/12/30 16:16:33;;;;;;;33.63;16.95;;;8.50;99.90;;;;;;5129929;27;20054;-75
2023/12/30 16:19:00;;;;;;;34.53;15.38;;;8.70;99.90;;;;;;5172207;27;20039;-74
2023/12/30 16:21:27;;;;;;;42.65;15.57;;;7.90;99.90;;;;;;5172931;27;20035;-76
2023/12/30 16:23:53;;;;;;;38.38;15.50;;;7.80;99.90;;;;;;5155247;27;20035;-76
2023/12/30 16:26:19;;;;;;;32.67;16.58;;;7.90;99.90;;;;;;5134467;27;20039;-76
2023/12/30 16:28:45;;;;;;;34.75;18.08;;;7.90;99.90;;;;;;5135341;27;20047;-75
2023/12/30 16:31:11;;;;;;;33.17;16.25;;;8.00;99.90;;;;;;5119906;27;20046;-75
2023/12/30 16:33:40;;;;;;;35.17;16.38;;;7.90;99.90;;;;;;5151469;27;20039;-76
2023/12/30 16:36:08;;;;;;;33.83;17.20;;;7.90;99.90;;;;;;5167564;27;20058;-75
2023/12/30 16:38:35;;;;;;;39.42;17.85;;;7.90;99.90;;;;;;5135144;27;20043;-76
2023/12/30 16:41:01;;;;;;;39.33;17.58;;;7.90;99.90;;;;;;5122020;27;20039;-75
2023/12/30 16:43:29;;;;;;;33.58;17.00;;;8.00;99.90;;;;;;5163352;27;20047;-76
2023/12/30 16:45:55;;;;;;;36.83;17.42;;;7.90;99.90;;;;;;5138306;27;20045;-76
2023/12/30 16:48:20;;;;;;;40.90;20.23;;;7.90;99.90;;;;;;5126388;27;20043;-76
2023/12/30 16:50:49;;;;;;;37.80;17.65;;;8.00;99.90;;;;;;5114588;27;20046;-75
2023/12/30 16:53:15;;;;;;;38.42;17.65;;;8.00;99.90;;;;;;5123507;27;20047;-75
2023/12/30 16:55:40;;;;;;;28.05;16.35;;;7.90;99.90;;;;;;5120574;27;20161;-78
2023/12/30 16:58:06;;;;;;;40.47;16.73;;;8.00;99.90;;;;;;5160621;27;20034;-75
2023/12/30 17:00:32;;;;;;;31.60;16.17;;;8.10;99.90;;;;;;5143801;27;20031;-75
2023/12/30 17:02:58;;;;;;;32.53;16.17;;;8.00;99.90;;;;;;5123469;27;20042;-75
2023/12/30 17:05:23;;;;;;;35.47;15.60;;;8.00;99.90;;;;;;5167716;27;20037;-75
2023/12/30 17:07:49;;;;;;;34.75;14.27;;;8.00;99.90;;;;;;5162917;27;20046;-76
2023/12/30 17:10:16;;;;;;;33.63;13.82;;;8.00;99.90;;;;;;5145395;27;20047;-77
2023/12/30 17:12:42;;;;;;;39.70;15.10;;;8.90;99.90;;;;;;5137185;27;20053;-76
2023/12/30 17:15:08;;;;;;;27.35;12.07;;;8.00;99.90;;;;;;5148943;27;20035;-77
2023/12/30 17:17:34;;;;;;;32.78;13.35;;;8.00;99.90;;;;;;5121497;27;20103;-76
2023/12/30 17:20:00;;;;;;;29.58;11.57;;;8.00;99.90;;;;;;5166606;27;20030;-76
2023/12/30 17:22:27;;;;;;;30.98;12.32;;;8.20;99.90;;;;;;5132474;27;20042;-75
2023/12/30 17:24:53;;;;;;;27.65;11.95;;;8.50;99.90;;;;;;5129413;27;20031;-76
2023/12/30 17:27:18;;;;;;;34.22;12.13;;;8.10;99.90;;;;;;5147586;27;20054;-75
2023/12/30 17:29:44;;;;;;;28.20;11.23;;;8.10;99.90;;;;;;5145064;27;20062;-76
2023/12/30 17:32:10;;;;;;;28.48;10.70;;;8.10;99.90;;;;;;5152692;27;20446;-75
2023/12/30 17:34:36;;;;;;;28.80;11.27;;;8.10;99.90;;;;;;5125500;27;20110;-75
2023/12/30 17:37:02;;;;;;;28.65;11.38;;;8.10;99.90;;;;;;5121002;27;20118;-76
2023/12/30 17:39:28;;;;;;;26.30;10.93;;;8.10;99.90;;;;;;5158575;27;20061;-75
2023/12/30 17:42:00;;;;;;;32.13;10.60;;;8.40;99.90;;;;;;5157767;27;20320;-76
2023/12/30 17:44:27;;;;;;;21.77;9.60;;;8.10;99.90;;;;;;5123478;27;20037;-76
2023/12/30 17:46:52;;;;;;;28.08;10.02;;;8.10;99.90;;;;;;5165677;27;20058;-76
2023/12/30 17:49:18;;;;;;;25.00;9.18;;;8.10;99.90;;;;;;5152626;27;20038;-76
2023/12/30 17:51:44;;;;;;;22.58;9.48;;;8.00;99.90;;;;;;5152725;27;20125;-77
2023/12/30 17:54:09;;;;;;;25.83;9.43;;;8.10;99.90;;;;;;5151055;27;20060;-76
2023/12/30 17:56:35;;;;;;;22.02;8.88;;;8.90;99.90;;;;;;5162855;27;20046;-76
2023/12/30 17:59:00;;;;;;;23.60;10.68;;;8.20;99.90;;;;;;5124258;27;20046;-76
2023/12/30 18:01:26;;;;;;;28.30;9.80;;;8.20;99.90;;;;;;5118854;27;20053;-76
2023/12/30 18:03:52;;;;;;;24.95;9.95;;;8.20;99.90;;;;;;5129168;27;20031;-75
2023/12/30 18:06:17;;;;;;;24.17;9.18;;;8.20;99.90;;;;;;5125671;27;20050;-76
2023/12/30 18:08:43;;;;;;;27.77;9.35;;;8.20;99.90;;;;;;5129780;27;20039;-75
2023/12/30 18:11:10;;;;;;;27.45;9.50;;;8.10;99.90;;;;;;5150946;27;20490;-76
2023/12/30 18:13:36;;;;;;;25.52;9.25;;;8.20;99.90;;;;;;5162711;27;20042;-77
2023/12/30 18:16:03;;;;;;;30.27;9.68;;;8.40;99.90;;;;;;5152773;27;20075;-76
2023/12/30 18:18:28;;;;;;;29.55;9.35;;;8.20;99.90;;;;;;5123812;27;20057;-76
2023/12/30 18:20:54;;;;;;;26.40;9.05;;;8.30;99.90;;;;;;5135293;27;20126;-76
2023/12/30 18:23:21;;;;;;;24.55;8.23;;;8.20;99.90;;;;;;5135889;27;20076;-75
2023/12/30 18:25:49;;;;;;;25.95;8.80;;;8.20;99.90;;;;;;5138955;27;20130;-76
2023/12/30 18:28:15;;;;;;;;;;;8.20;99.90;;;;;;5136170;27;20074;-75
2023/12/30 18:30:42;;;;;;;24.38;8.90;;;8.20;99.90;;;;;;5116242;27;19923;-75
2023/12/30 18:33:08;;;;;;;21.23;8.67;;;8.20;99.90;;;;;;5137831;27;20047;-75
2023/12/30 18:35:34;;;;;;;25.38;8.15;;;8.20;99.90;;;;;;5142386;27;20035;-76
2023/12/30 18:38:03;;;;;;;22.20;8.45;;;8.20;99.90;;;;;;5151937;27;20106;-76
2023/12/30 18:40:29;;;;;;;26.70;8.32;;;8.20;99.90;;;;;;5164854;27;20043;-76
2023/12/30 18:42:54;;;;;;;23.77;8.50;;;8.20;99.90;;;;;;5144843;27;20054;-76
2023/12/30 18:45:20;;;;;;;19.95;7.50;;;8.20;99.90;;;;;;5129793;27;20050;-76
2023/12/30 18:47:46;;;;;;;25.02;8.88;;;8.20;99.90;;;;;;5168357;27;20067;-76
2023/12/30 18:50:12;;;;;;;21.45;9.60;;;8.20;99.90;;;;;;5149322;27;20118;-76
2023/12/30 18:52:38;;;;;;;23.58;8.70;;;8.20;99.90;;;;;;5154435;27;20072;-77
2023/12/30 18:55:04;;;;;;;20.73;7.75;;;8.20;99.90;;;;;;5158605;27;20031;-76
2023/12/30 18:57:30;;;;;;;21.83;8.85;;;8.20;99.90;;;;;;5159966;27;20082;-76
2023/12/30 18:59:56;;;;;;;20.23;7.95;;;8.20;99.90;;;;;;5123750;27;20043;-76
2023/12/30 19:02:24;;;;;;;19.95;7.53;;;8.20;99.90;;;;;;5170544;27;20058;-76
2023/12/30 19:04:49;;;;;;;;;;;8.30;99.90;;;;;;5146593;27;20039;-77
2023/12/30 19:07:15;;;;;;;21.67;7.43;;;8.20;99.90;;;;;;5155084;27;19915;-77
2023/12/30 19:09:41;;;;;;;22.38;7.40;;;8.10;99.90;;;;;;5130506;27;20092;-76
2023/12/30 19:12:07;;;;;;;24.45;7.47;;;8.10;99.90;;;;;;5163185;27;20503;-76
2023/12/30 19:14:32;;;;;;;22.73;7.93;;;8.00;99.90;;;;;;5121918;27;20416;-77
2023/12/30 19:16:58;;;;;;;21.40;7.82;;;8.10;99.90;;;;;;5121462;27;20049;-76
2023/12/30 19:19:24;;;;;;;20.85;7.53;;;8.50;99.90;;;;;;5139641;28;20047;-77
2023/12/30 19:21:50;;;;;;;14.57;7.03;;;8.00;99.90;;;;;;5116222;27;20071;-76
2023/12/30 19:24:15;;;;;;;19.05;6.45;;;8.30;99.90;;;;;;5149140;27;20069;-76
2023/12/30 19:26:42;;;;;;;19.38;7.00;;;7.90;99.90;;;;;;5132126;27;20536;-76
2023/12/30 19:29:08;;;;;;;20.73;6.68;;;7.90;99.90;;;;;;5147093;27;20042;-78
2023/12/30 19:31:34;;;;;;;16.85;7.13;;;7.90;99.90;;;;;;5135557;27;20111;-76
2023/12/30 19:34:00;;;;;;;16.90;6.47;;;7.90;99.90;;;;;;5138750;27;20043;-77
2023/12/30 19:36:26;;;;;;;15.48;6.43;;;8.50;99.90;;;;;;5148724;27;20039;-76
2023/12/30 19:38:57;;;;;;;24.95;6.70;;;7.90;99.90;;;;;;5158158;27;20043;-77
2023/12/30 19:41:23;;;;;;;13.40;5.97;;;7.90;99.90;;;;;;5146463;27;20466;-77
2023/12/30 19:43:48;;;;;;;15.52;5.78;;;7.80;99.90;;;;;;5108144;27;20078;-77
2023/12/30 19:46:14;;;;;;;13.93;5.40;;;7.80;99.90;;;;;;5109244;27;20464;-76
2023/12/30 19:48:40;;;;;;;15.90;6.35;;;7.80;99.90;;;;;;5147526;27;20114;-75
2023/12/30 19:51:06;;;;;;;16.52;5.55;;;8.10;99.90;;;;;;5143235;27;20042;-76
2023/12/30 19:53:32;;;;;;;21.60;6.90;;;7.80;99.90;;;;;;5115529;27;20045;-76
2023/12/30 19:55:59;;;;;;;14.75;6.13;;;7.70;99.90;;;;;;5123639;27;20047;-76
2023/12/30 19:58:28;;;;;;;15.65;7.30;;;7.80;99.90;;;;;;5152151;27;20087;-77
2023/12/30 20:00:54;;;;;;;19.02;6.68;;;7.80;99.90;;;;;;5131933;27;20043;-76
2023/12/30 20:03:20;;;;;;;17.98;6.65;;;7.70;99.90;;;;;;5126978;27;20035;-76
2023/12/30 20:05:46;;;;;;;15.60;6.38;;;7.80;99.90;;;;;;5125447;27;20473;-76
2023/12/30 20:08:12;;;;;;;16.15;6.05;;;7.80;99.90;;;;;;5155393;27;20458;-75
2023/12/30 20:10:38;;;;;;;19.63;6.32;;;7.80;99.90;;;;;;5124852;27;20067;-77
2023/12/30 20:13:03;;;;;;;27.75;6.35;;;7.80;99.90;;;;;;5148311;27;20035;-76
2023/12/30 20:15:29;;;;;;;15.82;6.13;;;7.80;99.90;;;;;;5114593;27;20162;-75
2023/12/30 20:17:55;;;;;;;19.55;6.32;;;7.80;99.90;;;;;;5125606;27;20549;-75
2023/12/30 20:20:23;;;;;;;13.70;5.53;;;7.80;99.90;;;;;;5138946;27;20473;-77
2023/12/30 20:22:49;;;;;;;19.50;6.22;;;7.80;99.90;;;;;;5149625;27;20038;-78
2023/12/30 20:25:15;;;;;;;17.30;5.72;;;7.80;99.90;;;;;;5151929;27;20077;-76
2023/12/30 20:27:41;;;;;;;16.17;6.80;;;7.80;99.90;;;;;;5132369;27;20102;-77
2023/12/30 20:30:07;;;;;;;14.10;5.63;;;7.80;99.90;;;;;;5131069;27;20344;-77
2023/12/30 20:32:36;;;;;;;16.75;7.57;;;7.80;99.90;;;;;;5130043;27;20047;-77
2023/12/30 20:35:02;;;;;;;15.85;7.28;;;7.70;99.90;;;;;;5149935;27;20038;-76
2023/12/30 20:37:28;;;;;;;15.48;6.53;;;7.80;99.90;;;;;;5149478;27;20031;-76
2023/12/30 20:39:55;;;;;;;18.08;7.68;;;7.70;99.90;;;;;;5143607;27;20129;-76
2023/12/30 20:42:26;;;;;;;22.02;7.97;;;7.70;99.90;;;;;;5148803;27;20103;-76
2023/12/30 20:44:54;;;;;;;15.15;6.18;;;7.90;99.90;;;;;;5152352;27;20043;-76
2023/12/30 20:47:21;;;;;;;16.65;6.18;;;7.70;99.90;;;;;;5129524;27;20409;-75
2023/12/30 20:49:47;;;;;;;17.85;6.25;;;7.70;99.90;;;;;;5144781;27;20035;-77
2023/12/30 20:52:13;;;;;;;17.30;6.70;;;7.70;99.90;;;;;;5125318;27;20047;-75
2023/12/30 20:54:40;;;;;;;19.45;6.88;;;7.70;99.90;;;;;;5145699;27;20178;-76
2023/12/30 20:57:06;;;;;;;15.70;6.28;;;7.70;99.90;;;;;;5130242;27;20511;-77
2023/12/30 20:59:32;;;;;;;12.70;5.78;;;7.70;99.90;;;;;;5134196;27;20035;-75
2023/12/30 21:01:59;;;;;;;12.90;5.75;;;7.60;99.90;;;;;;5130376;27;20090;-75
2023/12/30 21:04:28;;;;;;;18.88;6.32;;;7.60;99.90;;;;;;5130729;27;20115;-76
2023/12/30 21:06:53;;;;;;;16.95;6.18;;;7.60;99.90;;;;;;5151298;27;20468;-76
2023/12/30 21:09:21;;;;;;;15.60;6.10;;;7.60;99.90;;;;;;5129553;27;20039;-77
2023/12/30 21:11:47;;;;;;;17.58;6.57;;;7.60;99.90;;;;;;5137322;27;20038;-76
2023/12/30 21:14:16;;;;;;;16.20;6.00;;;7.60;99.90;;;;;;5144539;27;20038;-77
2023/12/30 21:16:41;;;;;;;13.85;5.82;;;7.50;99.90;;;;;;5129673;27;20075;-75
2023/12/30 21:19:07;;;;;;;17.60;5.95;;;7.60;99.90;;;;;;5151363;27;20069;-75
2023/12/30 21:21:33;;;;;;;14.70;5.10;;;7.50;99.90;;;;;;5156977;27;20045;-75
2023/12/30 21:23:59;;;;;;;17.20;6.18;;;7.60;99.90;;;;;;5134552;27;20054;-76
2023/12/30 21:26:27;;;;;;;20.15;5.65;;;7.50;99.90;;;;;;5154973;27;20047;-76
2023/12/30 21:28:53;;;;;;;14.02;5.60;;;7.60;99.90;;;;;;5155730;27;20088;-75
2023/12/30 21:31:21;;;;;;;16.35;5.53;;;7.50;99.90;;;;;;5169776;27;20401;-75
2023/12/30 21:33:48;;;;;;;;;;;7.50;99.90;;;;;;5142807;27;20072;-76
2023/12/30 21:36:17;;;;;;;15.88;4.82;;;7.50;99.90;;;;;;5147162;27;19933;-75
2023/12/30 21:38:43;;;;;;;11.32;4.68;;;7.40;99.90;;;;;;5162214;27;20153;-76
2023/12/30 21:41:10;;;;;;;13.70;5.85;;;7.50;99.90;;;;;;5144379;27;20035;-77
2023/12/30 21:43:39;;;;;;;13.95;4.78;;;7.50;99.90;;;;;;5127212;27;20051;-77
2023/12/30 21:46:05;;;;;;;17.05;5.45;;;7.40;99.90;;;;;;5120250;27;20062;-75
2023/12/30 21:48:30;;;;;;;14.07;4.97;;;7.50;99.90;;;;;;5132664;27;20042;-75
2023/12/30 21:50:56;;;;;;;12.93;4.55;;;7.50;99.90;;;;;;5131875;27;20049;-77
2023/12/30 21:53:22;;;;;;;15.60;5.53;;;7.90;99.90;;;;;;5135204;27;20054;-76
2023/12/30 21:55:47;;;;;;;15.57;5.70;;;7.40;99.90;;;;;;5124635;27;20046;-77
2023/12/30 21:58:13;;;;;;;13.50;4.70;;;7.60;99.90;;;;;;5145263;27;20051;-77
2023/12/30 22:00:39;;;;;;;13.05;5.22;;;7.40;99.90;;;;;;5152292;27;20039;-76
2023/12/30 22:03:04;;;;;;;15.50;5.82;;;7.40;99.90;;;;;;5154324;27;20039;-78
2023/12/30 22:05:30;;;;;;;15.13;4.93;;;7.40;99.90;;;;;;5151973;27;20087;-76
2023/12/30 22:07:59;;;;;;;16.80;7.45;;;7.40;99.90;;;;;;5128634;27;20035;-76
2023/12/30 22:10:25;;;;;;;17.92;6.55;;;7.40;99.90;;;;;;5148845;27;20078;-77
2023/12/30 22:12:54;;;;;;;13.48;5.32;;;7.30;99.90;;;;;;5130156;27;20405;-77
2023/12/30 22:15:20;;;;;;;13.82;5.40;;;7.30;99.90;;;;;;5129326;27;20088;-77
2023/12/30 22:17:46;;;;;;;17.85;6.15;;;7.30;99.90;;;;;;5131356;27;20035;-76
2023/12/30 22:20:12;;;;;;;14.63;5.88;;;7.30;99.90;;;;;;5120024;27;21464;-78
2023/12/30 22:22:41;;;;;;;16.10;5.55;;;7.30;99.90;;;;;;5127883;27;20061;-76
2023/12/30 22:25:07;;;;;;;15.35;6.22;;;7.30;99.90;;;;;;5148708;27;20113;-77
2023/12/30 22:27:32;;;;;;;15.05;5.32;;;7.30;99.90;;;;;;5149427;27;20035;-77
2023/12/30 22:29:58;;;;;;;16.95;6.03;;;7.30;99.90;;;;;;5116563;27;20519;-76
2023/12/30 22:32:26;;;;;;;23.15;7.25;;;7.30;99.90;;;;;;5143468;27;20035;-76
2023/12/30 22:34:52;;;;;;;16.25;5.40;;;7.30;99.90;;;;;;5115539;27;20103;-77
2023/12/30 22:37:18;;;;;;;12.55;5.38;;;7.30;99.90;;;;;;5144108;27;20074;-77
2023/12/30 22:39:43;;;;;;;14.00;5.30;;;7.20;99.90;;;;;;5142537;27;20577;-77
2023/12/30 22:42:09;;;;;;;12.48;5.28;;;7.20;99.90;;;;;;5139044;27;20046;-77
2023/12/30 22:44:36;;;;;;;12.68;5.97;;;7.20;99.90;;;;;;5139490;27;20076;-77
2023/12/30 22:47:02;;;;;;;11.85;5.10;;;7.20;99.90;;;;;;5156966;27;20045;-76
2023/12/30 22:49:28;;;;;;;15.30;5.63;;;7.20;99.90;;;;;;5124769;27;20084;-77
2023/12/30 22:51:53;;;;;;;14.00;5.68;;;7.20;99.90;;;;;;5118977;27;20192;-76
2023/12/30 22:54:22;;;;;;;19.77;9.18;;;7.20;99.90;;;;;;5128808;27;20501;-76
2023/12/30 22:56:48;;;;;;;22.05;8.75;;;7.20;99.90;;;;;;5119157;27;20064;-77
2023/12/30 22:59:15;;;;;;;12.38;5.97;;;7.20;99.90;;;;;;5112228;27;20092;-78
2023/12/30 23:01:41;;;;;;;17.80;6.70;;;7.20;99.90;;;;;;5149242;27;20099;-77
2023/12/30 23:04:07;;;;;;;13.00;5.82;;;7.20;99.90;;;;;;5117499;27;20792;-77
2023/12/30 23:06:33;;;;;;;10.63;4.82;;;7.40;99.90;;;;;;5122241;27;20038;-77
2023/12/30 23:08:59;;;;;;;14.73;5.90;;;7.30;99.90;;;;;;5129360;27;20475;-76
2023/12/30 23:11:24;;;;;;;12.35;5.82;;;7.40;99.90;;;;;;5149675;27;20042;-76
2023/12/30 23:13:51;;;;;;;10.68;5.03;;;7.40;99.90;;;;;;5112195;27;20069;-76
2023/12/30 23:16:16;;;;;;;13.80;5.07;;;7.70;99.90;;;;;;5152897;27;20047;-77
2023/12/30 23:18:42;;;;;;;13.65;5.43;;;7.60;99.90;;;;;;5141677;27;20094;-78
2023/12/30 23:21:08;;;;;;;7.60;4.68;;;7.50;99.90;;;;;;5128585;27;20457;-77
2023/12/30 23:23:34;;;;;;;11.25;5.55;;;7.80;99.90;;;;;;5155883;27;20051;-77
2023/12/30 23:25:59;;;;;;;10.38;4.88;;;7.60;99.90;;;;;;5116357;27;20556;-76
2023/12/30 23:28:25;;;;;;;17.35;6.07;;;7.90;99.90;;;;;;5133040;27;20122;-77
2023/12/30 23:30:51;;;;;;;8.98;4.90;;;7.60;99.90;;;;;;5135958;27;20047;-77
2023/12/30 23:33:17;;;;;;;10.10;4.32;;;7.70;99.90;;;;;;5129573;27;20137;-76
2023/12/30 23:35:42;;;;;;;14.52;6.95;;;8.60;99.90;;;;;;5138814;27;20102;-77
2023/12/30 23:38:08;;;;;;;10.80;4.88;;;7.70;99.90;;;;;;5120090;27;20496;-77
2023/12/30 23:40:34;;;;;;;7.90;4.40;;;7.70;99.90;;;;;;5119573;27;20062;-77
2023/12/30 23:43:00;;;;;;;8.27;4.22;;;7.70;99.90;;;;;;5153172;27;20461;-77
2023/12/30 23:45:26;;;;;;;10.45;4.65;;;7.80;99.90;;;;;;5122758;27;20086;-78
2023/12/30 23:47:51;;;;;;;13.82;4.80;;;7.80;99.90;;;;;;5144094;27;20515;-77
2023/12/30 23:50:17;;;;;;;9.48;4.63;;;7.90;99.90;;;;;;5141979;27;20170;-77
2023/12/30 23:52:45;;;;;;;12.75;5.22;;;8.50;99.90;;;;;;5163020;27;20045;-77
2023/12/30 23:55:11;;;;;;;10.10;4.77;;;7.90;99.90;;;;;;5111134;27;20072;-77
2023/12/30 23:57:38;;;;;;;8.30;4.55;;;7.90;99.90;;;;;;5160911;27;20042;-76
